createdAt,value
2022-08-07T00:02:40.665Z,75.15
2022-08-07T00:05:04.061Z,75.31
2022-08-07T00:07:40.284Z,75.35
2022-08-07T00:10:27.126Z,75.28
2022-08-07T00:13:01.237Z,75.36
2022-08-07T00:15:38.083Z,75.36
2022-08-07T00:18:18.882Z,75.51
2022-08-07T00:20:51.321Z,75.57
2022-08-07T00:23:21.158Z,75.70
2022-08-07T00:25:58.964Z,75.66
2022-08-07T00:28:33.461Z,76.03
2022-08-07T00:31:05.730Z,75.81
2022-08-07T00:33:35.911Z,75.63
2022-08-07T00:36:07.865Z,75.84
2022-08-07T00:38:39.124Z,75.90
2022-08-07T00:41:09.775Z,76.11
2022-08-07T00:44:01.217Z,76.03
2022-08-07T00:46:33.946Z,76.25
2022-08-07T00:49:03.489Z,76.11
2022-08-07T00:51:58.567Z,76.05
2022-08-07T00:54:22.638Z,75.75
2022-08-07T00:56:52.179Z,75.64
2022-08-07T00:59:35.253Z,75.31
2022-08-07T01:02:08.810Z,75.52
2022-08-07T01:04:43.106Z,75.19
2022-08-07T01:07:13.987Z,75.01
2022-08-07T01:10:04.279Z,75.12
2022-08-07T01:12:32.967Z,74.76
2022-08-07T01:15:04.054Z,74.58
2022-08-07T01:17:34.470Z,74.37
2022-08-07T01:20:08.965Z,74.11
2022-08-07T01:22:46.582Z,73.96
2022-08-07T01:25:53.807Z,74.10
2022-08-07T01:28:12.050Z,74.10
2022-08-07T01:30:42.679Z,73.97
2022-08-07T01:33:11.137Z,73.87
2022-08-07T01:35:52.883Z,73.73
2022-08-07T01:38:25.830Z,73.61
2022-08-07T01:41:00.255Z,73.49
2022-08-07T01:43:34.751Z,73.28
2022-08-07T01:46:08.317Z,73.50
2022-08-07T01:48:42.275Z,73.23
2022-08-07T01:52:02.832Z,73.42
2022-08-07T01:54:33.299Z,73.27
2022-08-07T01:57:06.906Z,73.06
2022-08-07T01:59:45.274Z,73.25
2022-08-07T02:02:33.011Z,73.14
2022-08-07T02:05:16.092Z,72.99
2022-08-07T02:08:20.345Z,72.94
2022-08-07T02:10:58.615Z,72.54
2022-08-07T02:13:58.011Z,72.44
2022-08-07T02:16:32.960Z,72.36
2022-08-07T02:19:05.498Z,72.10
2022-08-07T02:21:57.768Z,72.10
2022-08-07T02:24:30.143Z,72.04
2022-08-07T02:27:02.461Z,71.64
2022-08-07T02:29:36.870Z,71.74
2022-08-07T02:32:18.385Z,71.58
2022-08-07T02:34:53.377Z,71.58
2022-08-07T02:37:24.786Z,71.75
2022-08-07T02:40:02.119Z,71.80
2022-08-07T02:42:48.253Z,71.86
2022-08-07T02:45:59.177Z,71.61
2022-08-07T02:48:10.211Z,71.30
2022-08-07T02:50:43.569Z,71.55
2022-08-07T02:53:16.578Z,71.24
2022-08-07T02:56:04.395Z,71.14
2022-08-07T02:58:36.785Z,71.06
2022-08-07T03:01:19.123Z,71.09
2022-08-07T03:04:03.383Z,70.86
2022-08-07T03:06:38.828Z,70.76
2022-08-07T03:09:11.167Z,70.41
2022-08-07T03:11:52.266Z,70.49
2022-08-07T03:14:28.561Z,70.37
2022-08-07T03:16:57.490Z,70.28
2022-08-07T03:19:28.734Z,70.18
2022-08-07T03:21:58.607Z,70.21
2022-08-07T03:24:28.309Z,70.38
2022-08-07T03:27:01.488Z,70.25
2022-08-07T03:29:36.799Z,70.30
2022-08-07T03:32:13.059Z,70.36
2022-08-07T03:34:47.219Z,70.58
2022-08-07T03:37:32.456Z,70.82
2022-08-07T03:40:15.269Z,70.70
2022-08-07T03:42:45.218Z,70.50
2022-08-07T03:45:29.838Z,70.51
2022-08-07T03:48:00.165Z,70.68
2022-08-07T03:50:30.163Z,70.79
2022-08-07T03:53:00.296Z,70.66
2022-08-07T03:55:57.426Z,70.68
2022-08-07T03:59:04.557Z,70.60
2022-08-07T04:01:11.651Z,70.73
2022-08-07T04:03:53.625Z,70.73
2022-08-07T04:06:37.926Z,70.57
2022-08-07T04:09:08.543Z,70.56
2022-08-07T04:12:25.663Z,70.44
2022-08-07T04:14:39.009Z,70.49
2022-08-07T04:17:20.051Z,70.49
2022-08-07T04:19:54.241Z,70.50
2022-08-07T04:22:27.448Z,70.07
2022-08-07T04:24:58.898Z,70.08
2022-08-07T04:27:35.512Z,70.15
2022-08-07T04:30:20.938Z,70.20
2022-08-07T04:32:59.013Z,69.99
2022-08-07T04:35:28.546Z,69.79
2022-08-07T04:38:07.778Z,70.10
2022-08-07T04:40:51.280Z,70.11
2022-08-07T04:44:09.770Z,70.01
2022-08-07T04:46:29.258Z,70.22
2022-08-07T04:49:18.310Z,70.09
2022-08-07T04:52:01.566Z,69.97
2022-08-07T04:54:36.854Z,69.84
2022-08-07T04:58:13.158Z,70.09
2022-08-07T05:00:18.914Z,70.06
2022-08-07T05:02:57.942Z,70.34
2022-08-07T05:05:52.834Z,70.07
2022-08-07T05:09:00.195Z,70.44
2022-08-07T05:11:19.353Z,70.29
2022-08-07T05:14:56.172Z,70.17
2022-08-07T05:16:52.683Z,69.96
2022-08-07T05:19:32.735Z,70.14
2022-08-07T05:22:26.691Z,70.32
2022-08-07T05:25:00.383Z,70.33
2022-08-07T05:28:02.494Z,70.20
2022-08-07T05:30:30.022Z,70.28
2022-08-07T05:33:03.354Z,70.04
2022-08-07T05:35:42.258Z,70.08
2022-08-07T05:39:00.263Z,70.18
2022-08-07T05:41:12.125Z,70.33
2022-08-07T05:44:07.672Z,70.09
2022-08-07T05:46:35.497Z,70.25
2022-08-07T05:49:11.753Z,70.22
2022-08-07T05:51:42.917Z,70.25
2022-08-07T05:54:44.601Z,70.52
2022-08-07T05:57:03.786Z,70.58
2022-08-07T05:59:46.541Z,70.39
2022-08-07T06:02:29.136Z,70.12
2022-08-07T06:05:03.867Z,70.07
2022-08-07T06:08:13.835Z,70.18
2022-08-07T06:10:25.041Z,69.85
2022-08-07T06:12:53.889Z,69.87
2022-08-07T06:15:39.063Z,69.93
2022-08-07T06:18:14.096Z,69.99
2022-08-07T06:20:50.291Z,69.67
2022-08-07T06:24:38.211Z,69.58
2022-08-07T06:26:27.515Z,69.76
2022-08-07T06:29:01.328Z,69.65
2022-08-07T06:31:47.220Z,69.52
2022-08-07T06:34:19.725Z,69.62
2022-08-07T06:36:51.955Z,69.34
2022-08-07T06:40:13.149Z,69.38
2022-08-07T06:42:17.573Z,69.29
2022-08-07T06:44:49.967Z,69.27
2022-08-07T06:47:21.100Z,69.20
2022-08-07T06:49:51.209Z,69.01
2022-08-07T06:52:31.705Z,69.01
2022-08-07T06:55:32.250Z,69.09
2022-08-07T06:58:04.841Z,69.09
2022-08-07T07:00:36.885Z,69.17
2022-08-07T07:03:08.728Z,69.10
2022-08-07T07:06:04.151Z,68.98
2022-08-07T07:08:31.122Z,68.78
2022-08-07T07:11:13.040Z,68.67
2022-08-07T07:13:58.312Z,68.51
2022-08-07T07:16:38.931Z,68.50
2022-08-07T07:19:55.679Z,68.35
2022-08-07T07:22:32.171Z,68.27
2022-08-07T07:25:02.951Z,68.22
2022-08-07T07:27:56.042Z,68.04
2022-08-07T07:30:40.118Z,68.13
2022-08-07T07:33:12.123Z,68.05
2022-08-07T07:35:54.730Z,67.91
2022-08-07T07:38:34.985Z,68.10
2022-08-07T07:41:08.727Z,67.89
2022-08-07T07:43:47.942Z,68.02
2022-08-07T07:46:39.829Z,67.97
2022-08-07T07:50:33.820Z,67.90
2022-08-07T07:52:15.803Z,67.79
2022-08-07T07:54:50.557Z,67.70
2022-08-07T07:57:43.660Z,67.55
2022-08-07T08:00:21.174Z,67.66
2022-08-07T08:03:07.887Z,67.56
2022-08-07T08:05:54.856Z,67.56
2022-08-07T08:08:37.093Z,67.44
2022-08-07T08:11:16.226Z,67.54
2022-08-07T08:13:55.425Z,67.27
2022-08-07T08:16:30.028Z,67.49
2022-08-07T08:19:18.099Z,67.31
2022-08-07T08:22:10.920Z,67.37
2022-08-07T08:25:18.144Z,67.34
2022-08-07T08:27:56.812Z,67.33
2022-08-07T08:30:30.276Z,67.51
2022-08-07T08:33:04.111Z,67.41
2022-08-07T08:35:39.411Z,67.37
2022-08-07T08:38:21.694Z,67.13
2022-08-07T08:41:03.813Z,67.00
2022-08-07T08:43:41.995Z,67.12
2022-08-07T08:46:20.377Z,67.14
2022-08-07T08:48:58.406Z,67.17
2022-08-07T08:51:49.501Z,67.12
2022-08-07T08:54:27.365Z,66.96
2022-08-07T08:56:59.247Z,67.09
2022-08-07T08:59:42.179Z,66.92
2022-08-07T09:02:36.395Z,66.97
2022-08-07T09:05:26.446Z,66.59
2022-08-07T09:08:31.374Z,66.42
2022-08-07T09:11:24.831Z,66.32
2022-08-07T09:14:13.051Z,66.32
2022-08-07T09:17:03.079Z,66.06
2022-08-07T09:19:55.216Z,66.08
2022-08-07T09:24:28.729Z,65.96
2022-08-07T09:25:39.213Z,65.97
2022-08-07T09:29:24.345Z,65.78
2022-08-07T09:31:03.022Z,65.68
2022-08-07T09:33:56.612Z,65.46
2022-08-07T09:36:35.689Z,65.70
2022-08-07T09:39:27.351Z,65.64
2022-08-07T09:42:33.559Z,65.14
2022-08-07T09:47:25.643Z,65.11
2022-08-07T09:48:14.387Z,64.71
2022-08-07T09:50:55.337Z,64.54
2022-08-07T09:53:27.163Z,64.54
2022-08-07T09:56:47.639Z,64.03
2022-08-07T09:59:44.557Z,64.05
2022-08-07T10:02:53.659Z,63.71
2022-08-07T10:05:59.429Z,63.48
2022-08-07T10:08:58.748Z,62.97
2022-08-07T10:12:03.155Z,63.00
2022-08-07T10:14:54.953Z,62.44
2022-08-07T10:18:01.678Z,61.90
2022-08-07T10:20:41.068Z,61.98
2022-08-07T10:24:05.504Z,61.77
2022-08-07T10:26:45.173Z,61.72
2022-08-07T10:30:06.508Z,61.33
2022-08-07T10:32:59.813Z,61.44
2022-08-07T10:35:56.499Z,61.48
2022-08-07T10:38:48.288Z,61.07
2022-08-07T10:41:54.687Z,60.88
2022-08-07T10:44:38.044Z,60.66
2022-08-07T10:47:27.251Z,60.36
2022-08-07T10:50:15.151Z,60.18
2022-08-07T10:52:53.397Z,60.15
2022-08-07T10:55:37.711Z,60.11
2022-08-07T10:58:24.945Z,59.91
2022-08-07T11:01:18.780Z,59.58
2022-08-07T11:04:16.606Z,59.71
2022-08-07T11:06:57.187Z,59.55
2022-08-07T11:10:09.400Z,59.07
2022-08-07T11:12:31.686Z,59.44
2022-08-07T11:15:14.443Z,59.04
2022-08-07T11:17:50.310Z,59.20
2022-08-07T11:20:31.369Z,58.39
2022-08-07T11:23:09.259Z,58.17
2022-08-07T11:25:47.886Z,57.94
2022-08-07T11:28:24.585Z,57.83
2022-08-07T11:31:01.077Z,57.20
2022-08-07T11:33:53.691Z,57.21
2022-08-07T11:36:42.062Z,56.75
2022-08-07T11:39:19.411Z,56.62
2022-08-07T11:42:00.280Z,56.35
2022-08-07T11:44:52.442Z,55.93
2022-08-07T11:47:56.043Z,55.66
2022-08-07T11:50:57.455Z,55.55
2022-08-07T11:54:01.548Z,55.98
2022-08-07T11:56:42.657Z,55.89
2022-08-07T12:00:12.268Z,55.72
2022-08-07T12:02:32.149Z,56.01
2022-08-07T12:05:09.179Z,55.96
2022-08-07T12:07:53.431Z,55.58
2022-08-07T12:10:41.640Z,54.57
2022-08-07T12:13:18.611Z,54.61
2022-08-07T12:16:09.191Z,54.52
2022-08-07T12:18:47.574Z,54.46
2022-08-07T12:22:36.144Z,54.37
2022-08-07T12:24:38.470Z,54.13
2022-08-07T12:27:16.125Z,54.38
2022-08-07T12:29:52.913Z,53.86
2022-08-07T12:32:28.520Z,53.94
2022-08-07T12:35:00.977Z,53.76
2022-08-07T12:38:10.081Z,53.49
2022-08-07T12:40:46.559Z,53.40
2022-08-07T12:44:03.586Z,53.55
2022-08-07T12:46:16.031Z,53.68
2022-08-07T12:49:09.846Z,53.83
2022-08-07T12:52:12.052Z,53.81
2022-08-07T12:54:55.042Z,54.04
2022-08-07T12:58:00.207Z,53.84
2022-08-07T13:00:31.231Z,53.54
2022-08-07T13:04:02.454Z,53.08
2022-08-07T13:07:00.695Z,53.48
2022-08-07T13:10:37.951Z,53.26
2022-08-07T13:12:56.140Z,53.34
2022-08-07T13:15:37.246Z,53.42
2022-08-07T13:18:26.681Z,53.17
2022-08-07T13:21:06.065Z,53.21
2022-08-07T13:24:01.981Z,53.01
2022-08-07T13:26:41.818Z,53.11
2022-08-07T13:29:19.408Z,53.44
2022-08-07T13:31:57.466Z,53.22
2022-08-07T13:34:36.648Z,53.81
2022-08-07T13:37:20.590Z,54.07
2022-08-07T13:40:35.611Z,54.08
2022-08-07T13:42:55.633Z,54.16
2022-08-07T13:46:20.771Z,53.92
2022-08-07T13:48:27.787Z,53.67
2022-08-07T13:51:27.987Z,53.87
2022-08-07T13:54:00.646Z,53.98
2022-08-07T13:56:35.963Z,53.69
2022-08-07T13:59:13.838Z,53.79
2022-08-07T14:01:59.102Z,53.35
2022-08-07T14:04:49.634Z,53.09
2022-08-07T14:07:23.047Z,52.99
2022-08-07T14:10:12.400Z,52.32
2022-08-07T14:12:55.758Z,52.30
2022-08-07T14:15:36.525Z,52.06
2022-08-07T14:18:24.468Z,51.92
2022-08-07T14:21:08.321Z,51.85
2022-08-07T14:24:00.407Z,51.78
2022-08-07T14:26:37.242Z,51.69
2022-08-07T14:30:06.232Z,51.58
2022-08-07T14:32:02.289Z,51.52
2022-08-07T14:34:34.437Z,51.52
2022-08-07T14:37:18.765Z,51.69
2022-08-07T14:40:16.616Z,51.70
2022-08-07T14:43:00.736Z,51.94
2022-08-07T14:45:46.815Z,51.93
2022-08-07T14:48:21.035Z,51.93
2022-08-07T14:50:53.257Z,51.67
2022-08-07T14:54:08.590Z,51.35
2022-08-07T14:56:29.494Z,51.47
2022-08-07T14:59:13.812Z,51.31
2022-08-07T15:01:59.027Z,51.25
2022-08-07T15:04:28.866Z,51.23
2022-08-07T15:06:58.235Z,50.96
2022-08-07T15:09:59.482Z,51.01
2022-08-07T15:21:08.002Z,50.10
2022-08-07T15:25:12.690Z,50.01
2022-08-07T15:26:39.471Z,50.08
2022-08-07T15:32:05.070Z,50.54
2022-08-07T15:34:50.379Z,50.56
2022-08-07T15:37:27.730Z,50.75
2022-08-07T15:39:59.740Z,50.99
2022-08-07T15:42:52.060Z,50.76
2022-08-07T15:51:18.086Z,51.16
2022-08-07T15:53:53.616Z,51.42
2022-08-07T15:56:33.227Z,51.29
2022-08-07T15:59:06.661Z,51.72
2022-08-07T16:02:01.753Z,52.46
2022-08-07T16:04:35.695Z,52.53
2022-08-07T16:08:33.706Z,52.68
2022-08-07T16:10:08.710Z,52.62
2022-08-07T16:13:01.349Z,52.78
2022-08-07T16:15:57.443Z,52.42
2022-08-07T16:18:51.017Z,52.72
2022-08-07T16:22:01.983Z,52.54
2022-08-07T16:24:33.686Z,52.28
2022-08-07T16:27:20.927Z,52.30
2022-08-07T16:30:29.523Z,52.32
2022-08-07T16:34:02.249Z,52.52
2022-08-07T16:36:20.239Z,52.32
2022-08-07T16:39:14.886Z,52.29
2022-08-07T16:42:02.846Z,52.41
2022-08-07T16:45:15.556Z,52.29
2022-08-07T16:48:28.454Z,52.13
2022-08-07T16:51:54.380Z,52.21
2022-08-07T16:54:19.501Z,52.27
2022-08-07T16:57:03.184Z,52.36
2022-08-07T16:59:46.073Z,52.13
2022-08-07T17:02:52.517Z,52.46
2022-08-07T17:06:19.572Z,53.39
2022-08-07T17:09:09.165Z,53.01
2022-08-07T17:12:01.799Z,53.28
2022-08-07T17:14:44.722Z,53.62
2022-08-07T17:17:44.326Z,53.87
2022-08-07T17:20:30.089Z,54.13
2022-08-07T17:23:12.992Z,54.14
2022-08-07T17:25:54.595Z,53.73
2022-08-07T17:28:34.467Z,53.65
2022-08-07T17:31:15.725Z,53.75
2022-08-07T17:34:32.766Z,53.65
2022-08-07T17:36:58.006Z,53.54
2022-08-07T17:39:57.753Z,53.48
2022-08-07T17:42:58.262Z,53.50
2022-08-07T17:45:35.264Z,53.63
2022-08-07T17:48:10.399Z,53.86
2022-08-07T17:50:54.210Z,54.02
2022-08-07T17:54:01.038Z,54.22
2022-08-07T17:56:29.732Z,54.33
2022-08-07T17:59:10.308Z,54.13
2022-08-07T18:01:56.768Z,54.37
2022-08-07T18:04:34.497Z,54.40
2022-08-07T18:07:19.956Z,54.33
2022-08-07T18:10:06.211Z,54.50
2022-08-07T18:13:09.634Z,54.50
2022-08-07T18:15:53.430Z,54.62
2022-08-07T18:18:45.834Z,54.58
2022-08-07T18:21:42.212Z,54.40
2022-08-07T18:24:28.391Z,54.33
2022-08-07T18:27:38.932Z,54.05
2022-08-07T18:30:31.429Z,54.29
2022-08-07T18:33:37.867Z,54.04
2022-08-07T18:36:17.582Z,54.22
2022-08-07T18:40:05.476Z,54.25
2022-08-07T18:42:12.816Z,53.95
2022-08-07T18:45:44.167Z,53.75
2022-08-07T18:48:00.830Z,53.74
2022-08-07T18:50:49.532Z,53.77
2022-08-07T18:53:37.054Z,53.90
2022-08-07T18:56:17.689Z,53.64
2022-08-07T18:59:47.733Z,53.72
2022-08-07T19:02:33.031Z,53.46
2022-08-07T19:05:15.285Z,53.50
2022-08-07T19:08:03.814Z,53.32
2022-08-07T19:10:49.777Z,53.22
2022-08-07T19:13:27.447Z,52.86
2022-08-07T19:17:00.288Z,52.86
2022-08-07T19:19:03.430Z,52.62
2022-08-07T19:21:45.126Z,52.22
2022-08-07T19:24:31.043Z,52.16
2022-08-07T19:28:56.401Z,51.95
2022-08-07T19:31:05.607Z,51.66
2022-08-07T19:32:59.091Z,51.83
2022-08-07T19:35:33.232Z,51.62
2022-08-07T19:38:15.718Z,51.82
2022-08-07T19:40:50.086Z,51.77
2022-08-07T19:43:48.737Z,51.82
2022-08-07T19:46:15.743Z,51.62
2022-08-07T19:48:54.186Z,51.61
2022-08-07T19:51:51.082Z,51.44
2022-08-07T19:54:35.149Z,51.62
2022-08-07T19:57:59.905Z,51.50
2022-08-07T20:00:02.040Z,51.44
2022-08-07T20:02:35.630Z,51.70
2022-08-07T20:05:10.865Z,51.87
2022-08-07T20:07:46.418Z,51.86
2022-08-07T20:10:35.527Z,51.88
2022-08-07T20:13:23.464Z,52.09
2022-08-07T20:15:58.389Z,52.22
2022-08-07T20:18:33.005Z,52.47
2022-08-07T20:21:21.005Z,52.75
2022-08-07T20:23:57.882Z,53.18
2022-08-07T20:26:44.843Z,53.17
2022-08-07T20:29:47.133Z,53.24
2022-08-07T20:32:11.335Z,53.28
2022-08-07T20:34:51.716Z,53.34
2022-08-07T20:37:26.333Z,53.15
2022-08-07T20:40:02.158Z,53.24
2022-08-07T20:42:38.601Z,53.52
2022-08-07T20:45:33.641Z,53.71
2022-08-07T20:48:02.496Z,53.76
2022-08-07T20:50:31.950Z,53.76
2022-08-07T20:53:00.844Z,53.76
2022-08-07T20:55:32.297Z,53.90
2022-08-07T20:58:19.187Z,53.73
2022-08-07T21:01:02.768Z,53.71
2022-08-07T21:03:34.565Z,53.76
2022-08-07T21:06:21.796Z,54.15
2022-08-07T21:09:01.072Z,54.88
2022-08-07T21:11:46.029Z,55.51
2022-08-07T21:14:33.293Z,55.90
2022-08-07T21:18:00.930Z,56.12
2022-08-07T21:20:04.424Z,56.15
2022-08-07T21:22:44.695Z,56.34
2022-08-07T21:25:21.336Z,56.51
2022-08-07T21:28:02.560Z,57.23
2022-08-07T21:30:43.906Z,57.90
2022-08-07T21:33:18.934Z,57.85
2022-08-07T21:36:05.133Z,58.21
2022-08-07T21:38:54.488Z,58.62
2022-08-07T21:41:38.422Z,58.77
2022-08-07T21:44:29.923Z,59.06
2022-08-07T21:47:07.383Z,59.52
2022-08-07T21:50:01.813Z,59.98
2022-08-07T21:52:45.127Z,60.38
2022-08-07T21:55:29.868Z,61.09
2022-08-07T21:58:09.217Z,60.96
2022-08-07T22:00:48.579Z,60.72
2022-08-07T22:03:31.537Z,60.81
2022-08-07T22:06:05.003Z,60.99
2022-08-07T22:08:40.309Z,61.10
2022-08-07T22:11:17.650Z,61.13
2022-08-07T22:13:52.666Z,61.71
2022-08-07T22:16:42.654Z,61.93
2022-08-07T22:19:29.321Z,62.00
2022-08-07T22:22:20.703Z,62.30
2022-08-07T22:25:03.274Z,62.44
2022-08-07T22:28:08.337Z,62.59
2022-08-07T22:30:32.913Z,62.82
2022-08-07T22:33:07.268Z,62.94
2022-08-07T22:35:44.842Z,63.09
2022-08-07T22:38:29.350Z,63.50
2022-08-07T22:41:03.919Z,63.67
2022-08-07T22:43:40.383Z,63.77
2022-08-07T22:47:02.483Z,64.50
2022-08-07T22:49:55.280Z,64.02
2022-08-07T22:53:18.602Z,64.05
2022-08-07T22:56:09.060Z,63.35
2022-08-07T22:59:20.314Z,64.05
2022-08-07T23:02:02.848Z,64.32
2022-08-07T23:04:57.815Z,64.93
2022-08-07T23:07:54.663Z,64.53
2022-08-07T23:10:39.623Z,64.73
2022-08-07T23:13:48.972Z,64.86
2022-08-07T23:16:44.789Z,64.32
2022-08-07T23:19:51.749Z,64.31
2022-08-07T23:22:35.974Z,64.26
2022-08-07T23:25:28.337Z,64.07
2022-08-07T23:28:22.529Z,63.75
2022-08-07T23:31:43.023Z,63.88
2022-08-07T23:34:37.715Z,63.83
2022-08-07T23:37:30.352Z,64.08
2022-08-07T23:40:13.838Z,64.77
2022-08-07T23:43:02.137Z,65.27
2022-08-07T23:46:02.974Z,65.14
2022-08-07T23:49:15.660Z,65.69
2022-08-07T23:52:59.616Z,65.30
2022-08-07T23:54:46.560Z,65.23
2022-08-07T23:57:29.101Z,65.54
